sensor_id;sensor_type;location;lat;lon;timestamp;P1;durP1;ratioP1;P2;durP2;ratioP2
16075;SDS011;8142;48.242;11.644;2023-06-26T00:02:23;8.77;;;7.50;;
16075;SDS011;8142;48.242;11.644;2023-06-26T00:04:49;11.70;;;7.50;;
16075;SDS011;8142;48.242;11.644;2023-06-26T00:07:19;9.70;;;7.30;;
16075;SDS011;8142;48.242;11.644;2023-06-26T00:09:45;9.90;;;7.30;;
16075;SDS011;8142;48.242;11.644;2023-06-26T00:12:11;11.47;;;7.27;;
16075;SDS011;8142;48.242;11.644;2023-06-26T00:14:37;9.40;;;7.07;;
16075;SDS011;8142;48.242;11.644;2023-06-26T00:17:03;10.60;;;7.43;;
16075;SDS011;8142;48.242;11.644;2023-06-26T00:19:29;10.37;;;6.77;;
16075;SDS011;8142;48.242;11.644;2023-06-26T00:21:55;9.57;;;7.30;;
16075;SDS011;8142;48.242;11.644;2023-06-26T00:24:23;10.07;;;6.67;;
16075;SDS011;8142;48.242;11.644;2023-06-26T00:26:49;11.37;;;7.87;;
16075;SDS011;8142;48.242;11.644;2023-06-26T00:29:15;10.13;;;7.30;;
16075;SDS011;8142;48.242;11.644;2023-06-26T00:31:41;10.10;;;7.43;;
16075;SDS011;8142;48.242;11.644;2023-06-26T00:34:07;10.63;;;7.60;;
16075;SDS011;8142;48.242;11.644;2023-06-26T00:36:33;9.00;;;7.40;;
16075;SDS011;8142;48.242;11.644;2023-06-26T00:38:59;10.23;;;7.67;;
16075;SDS011;8142;48.242;11.644;2023-06-26T00:41:25;10.57;;;6.93;;
16075;SDS011;8142;48.242;11.644;2023-06-26T00:43:51;9.80;;;7.63;;
16075;SDS011;8142;48.242;11.644;2023-06-26T00:46:19;9.63;;;7.30;;
16075;SDS011;8142;48.242;11.644;2023-06-26T00:48:46;8.67;;;6.60;;
16075;SDS011;8142;48.242;11.644;2023-06-26T00:51:13;9.33;;;7.20;;
16075;SDS011;8142;48.242;11.644;2023-06-26T00:53:39;12.70;;;7.30;;
16075;SDS011;8142;48.242;11.644;2023-06-26T00:56:05;9.33;;;7.47;;
16075;SDS011;8142;48.242;11.644;2023-06-26T00:58:33;8.73;;;7.20;;
16075;SDS011;8142;48.242;11.644;2023-06-26T01:00:59;8.63;;;6.90;;
16075;SDS011;8142;48.242;11.644;2023-06-26T01:03:26;9.83;;;7.40;;
16075;SDS011;8142;48.242;11.644;2023-06-26T01:05:52;8.70;;;6.83;;
16075;SDS011;8142;48.242;11.644;2023-06-26T01:08:19;12.07;;;7.40;;
16075;SDS011;8142;48.242;11.644;2023-06-26T01:10:45;7.93;;;6.87;;
16075;SDS011;8142;48.242;11.644;2023-06-26T01:13:12;9.77;;;7.03;;
16075;SDS011;8142;48.242;11.644;2023-06-26T01:15:40;9.60;;;7.37;;
16075;SDS011;8142;48.242;11.644;2023-06-26T01:18:06;9.97;;;6.60;;
16075;SDS011;8142;48.242;11.644;2023-06-26T01:20:35;11.67;;;7.53;;
16075;SDS011;8142;48.242;11.644;2023-06-26T01:23:07;10.07;;;7.20;;
16075;SDS011;8142;48.242;11.644;2023-06-26T01:29:26;8.40;;;7.13;;
16075;SDS011;8142;48.242;11.644;2023-06-26T01:31:55;10.70;;;7.30;;
16075;SDS011;8142;48.242;11.644;2023-06-26T01:34:21;9.97;;;7.43;;
16075;SDS011;8142;48.242;11.644;2023-06-26T01:36:47;9.30;;;7.40;;
16075;SDS011;8142;48.242;11.644;2023-06-26T01:39:15;9.53;;;7.10;;
16075;SDS011;8142;48.242;11.644;2023-06-26T01:41:41;8.87;;;7.03;;
16075;SDS011;8142;48.242;11.644;2023-06-26T01:57:31;10.10;;;7.43;;
16075;SDS011;8142;48.242;11.644;2023-06-26T01:59:59;9.63;;;7.40;;
16075;SDS011;8142;48.242;11.644;2023-06-26T02:02:27;11.20;;;7.63;;
16075;SDS011;8142;48.242;11.644;2023-06-26T02:04:54;8.73;;;7.23;;
16075;SDS011;8142;48.242;11.644;2023-06-26T02:07:20;12.10;;;8.27;;
16075;SDS011;8142;48.242;11.644;2023-06-26T02:09:45;10.93;;;7.40;;
16075;SDS011;8142;48.242;11.644;2023-06-26T02:12:11;9.03;;;7.50;;
16075;SDS011;8142;48.242;11.644;2023-06-26T02:14:37;9.50;;;7.67;;
16075;SDS011;8142;48.242;11.644;2023-06-26T02:17:03;9.40;;;8.30;;
16075;SDS011;8142;48.242;11.644;2023-06-26T02:19:29;9.83;;;7.53;;
16075;SDS011;8142;48.242;11.644;2023-06-26T02:21:55;11.83;;;8.60;;
16075;SDS011;8142;48.242;11.644;2023-06-26T02:24:21;9.67;;;7.90;;
16075;SDS011;8142;48.242;11.644;2023-06-26T02:26:47;11.77;;;8.53;;
16075;SDS011;8142;48.242;11.644;2023-06-26T02:29:14;10.23;;;8.43;;
16075;SDS011;8142;48.242;11.644;2023-06-26T02:31:40;9.97;;;7.73;;
16075;SDS011;8142;48.242;11.644;2023-06-26T02:34:06;10.23;;;7.80;;
16075;SDS011;8142;48.242;11.644;2023-06-26T02:36:32;9.57;;;7.83;;
16075;SDS011;8142;48.242;11.644;2023-06-26T02:38:58;9.70;;;7.57;;
16075;SDS011;8142;48.242;11.644;2023-06-26T02:41:24;8.87;;;7.40;;
16075;SDS011;8142;48.242;11.644;2023-06-26T02:43:50;9.73;;;7.87;;
16075;SDS011;8142;48.242;11.644;2023-06-26T02:46:16;11.03;;;8.03;;
16075;SDS011;8142;48.242;11.644;2023-06-26T02:48:41;10.13;;;7.93;;
16075;SDS011;8142;48.242;11.644;2023-06-26T02:51:07;12.30;;;8.17;;
16075;SDS011;8142;48.242;11.644;2023-06-26T02:53:33;12.50;;;8.10;;
16075;SDS011;8142;48.242;11.644;2023-06-26T02:55:59;10.43;;;8.40;;
16075;SDS011;8142;48.242;11.644;2023-06-26T02:58:25;11.00;;;8.40;;
16075;SDS011;8142;48.242;11.644;2023-06-26T03:00:51;9.80;;;8.33;;
16075;SDS011;8142;48.242;11.644;2023-06-26T03:03:18;11.30;;;8.23;;
16075;SDS011;8142;48.242;11.644;2023-06-26T03:05:44;9.70;;;8.23;;
16075;SDS011;8142;48.242;11.644;2023-06-26T03:08:10;11.60;;;8.60;;
16075;SDS011;8142;48.242;11.644;2023-06-26T03:10:36;10.40;;;8.40;;
16075;SDS011;8142;48.242;11.644;2023-06-26T03:13:02;9.07;;;7.43;;
16075;SDS011;8142;48.242;11.644;2023-06-26T03:15:28;11.33;;;8.20;;
16075;SDS011;8142;48.242;11.644;2023-06-26T03:17:53;11.90;;;8.53;;
16075;SDS011;8142;48.242;11.644;2023-06-26T03:20:19;10.03;;;8.13;;
16075;SDS011;8142;48.242;11.644;2023-06-26T03:22:45;10.50;;;7.67;;
16075;SDS011;8142;48.242;11.644;2023-06-26T03:25:11;11.57;;;8.03;;
16075;SDS011;8142;48.242;11.644;2023-06-26T03:27:37;10.23;;;8.17;;
16075;SDS011;8142;48.242;11.644;2023-06-26T03:30:02;9.70;;;8.23;;
16075;SDS011;8142;48.242;11.644;2023-06-26T03:32:29;10.73;;;8.13;;
16075;SDS011;8142;48.242;11.644;2023-06-26T03:34:54;10.20;;;7.93;;
16075;SDS011;8142;48.242;11.644;2023-06-26T03:37:20;8.93;;;7.60;;
16075;SDS011;8142;48.242;11.644;2023-06-26T03:39:46;11.17;;;8.30;;
16075;SDS011;8142;48.242;11.644;2023-06-26T03:42:12;10.83;;;8.60;;
16075;SDS011;8142;48.242;11.644;2023-06-26T03:44:38;9.87;;;8.27;;
16075;SDS011;8142;48.242;11.644;2023-06-26T03:47:03;12.27;;;8.90;;
16075;SDS011;8142;48.242;11.644;2023-06-26T03:49:29;11.67;;;8.90;;
16075;SDS011;8142;48.242;11.644;2023-06-26T03:51:55;10.43;;;8.57;;
16075;SDS011;8142;48.242;11.644;2023-06-26T03:54:21;11.50;;;9.10;;
16075;SDS011;8142;48.242;11.644;2023-06-26T03:56:47;10.43;;;8.50;;
16075;SDS011;8142;48.242;11.644;2023-06-26T03:59:13;13.17;;;9.13;;
16075;SDS011;8142;48.242;11.644;2023-06-26T04:01:38;10.40;;;8.53;;
16075;SDS011;8142;48.242;11.644;2023-06-26T04:04:04;11.23;;;8.63;;
16075;SDS011;8142;48.242;11.644;2023-06-26T04:06:30;10.63;;;8.80;;
16075;SDS011;8142;48.242;11.644;2023-06-26T04:08:57;12.07;;;9.03;;
16075;SDS011;8142;48.242;11.644;2023-06-26T04:11:23;12.13;;;9.07;;
16075;SDS011;8142;48.242;11.644;2023-06-26T04:13:49;12.10;;;8.93;;
16075;SDS011;8142;48.242;11.644;2023-06-26T04:16:15;10.97;;;8.70;;
16075;SDS011;8142;48.242;11.644;2023-06-26T04:18:41;11.90;;;8.47;;
16075;SDS011;8142;48.242;11.644;2023-06-26T04:21:11;12.07;;;8.90;;
16075;SDS011;8142;48.242;11.644;2023-06-26T04:23:38;11.47;;;9.23;;
16075;SDS011;8142;48.242;11.644;2023-06-26T04:26:05;11.63;;;8.67;;
16075;SDS011;8142;48.242;11.644;2023-06-26T04:28:32;11.60;;;8.27;;
16075;SDS011;8142;48.242;11.644;2023-06-26T04:30:58;11.50;;;8.13;;
16075;SDS011;8142;48.242;11.644;2023-06-26T04:33:24;11.43;;;8.83;;
16075;SDS011;8142;48.242;11.644;2023-06-26T04:35:51;10.93;;;8.50;;
16075;SDS011;8142;48.242;11.644;2023-06-26T04:38:18;10.57;;;8.43;;
16075;SDS011;8142;48.242;11.644;2023-06-26T04:40:44;11.27;;;8.10;;
16075;SDS011;8142;48.242;11.644;2023-06-26T04:43:10;12.10;;;8.37;;
16075;SDS011;8142;48.242;11.644;2023-06-26T04:45:36;12.30;;;8.67;;
16075;SDS011;8142;48.242;11.644;2023-06-26T04:48:02;12.43;;;8.47;;
16075;SDS011;8142;48.242;11.644;2023-06-26T04:50:29;13.43;;;9.27;;
16075;SDS011;8142;48.242;11.644;2023-06-26T04:52:55;10.67;;;8.07;;
16075;SDS011;8142;48.242;11.644;2023-06-26T04:55:23;9.50;;;7.93;;
16075;SDS011;8142;48.242;11.644;2023-06-26T04:57:50;9.90;;;8.07;;
16075;SDS011;8142;48.242;11.644;2023-06-26T05:00:16;9.77;;;7.70;;
16075;SDS011;8142;48.242;11.644;2023-06-26T05:02:42;10.23;;;8.23;;
16075;SDS011;8142;48.242;11.644;2023-06-26T05:05:08;9.87;;;7.77;;
16075;SDS011;8142;48.242;11.644;2023-06-26T05:07:34;10.93;;;7.77;;
16075;SDS011;8142;48.242;11.644;2023-06-26T05:10:00;11.07;;;8.07;;
16075;SDS011;8142;48.242;11.644;2023-06-26T05:12:25;9.53;;;7.77;;
16075;SDS011;8142;48.242;11.644;2023-06-26T05:14:51;10.20;;;8.10;;
16075;SDS011;8142;48.242;11.644;2023-06-26T05:17:17;10.73;;;8.37;;
16075;SDS011;8142;48.242;11.644;2023-06-26T05:19:43;11.13;;;8.07;;
16075;SDS011;8142;48.242;11.644;2023-06-26T05:22:09;11.60;;;8.23;;
16075;SDS011;8142;48.242;11.644;2023-06-26T05:24:35;10.43;;;7.87;;
16075;SDS011;8142;48.242;11.644;2023-06-26T05:27:02;12.97;;;8.90;;
16075;SDS011;8142;48.242;11.644;2023-06-26T05:29:30;10.40;;;7.93;;
16075;SDS011;8142;48.242;11.644;2023-06-26T05:31:56;10.90;;;8.40;;
16075;SDS011;8142;48.242;11.644;2023-06-26T05:34:23;9.57;;;7.87;;
16075;SDS011;8142;48.242;11.644;2023-06-26T05:36:52;10.03;;;7.40;;
16075;SDS011;8142;48.242;11.644;2023-06-26T05:39:23;9.27;;;7.80;;
16075;SDS011;8142;48.242;11.644;2023-06-26T05:41:50;13.77;;;7.50;;
16075;SDS011;8142;48.242;11.644;2023-06-26T05:44:16;8.87;;;7.27;;
16075;SDS011;8142;48.242;11.644;2023-06-26T05:46:43;9.07;;;7.50;;
16075;SDS011;8142;48.242;11.644;2023-06-26T05:49:11;10.33;;;7.57;;
16075;SDS011;8142;48.242;11.644;2023-06-26T05:51:37;9.10;;;7.40;;
16075;SDS011;8142;48.242;11.644;2023-06-26T05:54:03;9.70;;;7.50;;
16075;SDS011;8142;48.242;11.644;2023-06-26T05:56:29;9.00;;;7.10;;
16075;SDS011;8142;48.242;11.644;2023-06-26T05:58:56;9.90;;;7.50;;
16075;SDS011;8142;48.242;11.644;2023-06-26T06:01:23;9.37;;;6.80;;
16075;SDS011;8142;48.242;11.644;2023-06-26T06:03:49;8.97;;;6.80;;
16075;SDS011;8142;48.242;11.644;2023-06-26T06:06:15;10.67;;;7.50;;
16075;SDS011;8142;48.242;11.644;2023-06-26T06:08:41;8.37;;;7.07;;
16075;SDS011;8142;48.242;11.644;2023-06-26T06:11:07;10.33;;;7.43;;
16075;SDS011;8142;48.242;11.644;2023-06-26T06:13:33;8.37;;;7.30;;
16075;SDS011;8142;48.242;11.644;2023-06-26T06:15:59;9.63;;;7.53;;
16075;SDS011;8142;48.242;11.644;2023-06-26T06:18:25;9.23;;;7.13;;
16075;SDS011;8142;48.242;11.644;2023-06-26T06:20:51;9.67;;;7.37;;
16075;SDS011;8142;48.242;11.644;2023-06-26T06:23:17;7.70;;;6.90;;
16075;SDS011;8142;48.242;11.644;2023-06-26T06:25:43;10.40;;;7.90;;
16075;SDS011;8142;48.242;11.644;2023-06-26T06:28:09;10.90;;;7.73;;
16075;SDS011;8142;48.242;11.644;2023-06-26T06:30:34;9.77;;;7.00;;
16075;SDS011;8142;48.242;11.644;2023-06-26T06:33:01;9.23;;;7.07;;
16075;SDS011;8142;48.242;11.644;2023-06-26T06:35:27;9.27;;;7.43;;
16075;SDS011;8142;48.242;11.644;2023-06-26T06:37:52;8.03;;;7.17;;
16075;SDS011;8142;48.242;11.644;2023-06-26T06:40:18;9.50;;;7.23;;
16075;SDS011;8142;48.242;11.644;2023-06-26T06:42:44;10.50;;;7.70;;
16075;SDS011;8142;48.242;11.644;2023-06-26T06:45:10;9.67;;;7.67;;
16075;SDS011;8142;48.242;11.644;2023-06-26T06:47:36;8.80;;;7.70;;
16075;SDS011;8142;48.242;11.644;2023-06-26T06:50:02;8.70;;;7.23;;
16075;SDS011;8142;48.242;11.644;2023-06-26T06:52:39;9.20;;;6.90;;
16075;SDS011;8142;48.242;11.644;2023-06-26T06:55:06;6.53;;;5.87;;
16075;SDS011;8142;48.242;11.644;2023-06-26T06:57:36;7.60;;;6.17;;
16075;SDS011;8142;48.242;11.644;2023-06-26T07:00:04;7.43;;;5.93;;
16075;SDS011;8142;48.242;11.644;2023-06-26T07:02:30;6.77;;;6.07;;
16075;SDS011;8142;48.242;11.644;2023-06-26T07:04:56;7.43;;;6.10;;
16075;SDS011;8142;48.242;11.644;2023-06-26T07:07:22;7.33;;;6.00;;
16075;SDS011;8142;48.242;11.644;2023-06-26T07:09:48;6.17;;;5.57;;
16075;SDS011;8142;48.242;11.644;2023-06-26T07:12:14;7.75;;;5.85;;
16075;SDS011;8142;48.242;11.644;2023-06-26T07:14:40;8.05;;;6.07;;
16075;SDS011;8142;48.242;11.644;2023-06-26T07:17:06;7.23;;;6.30;;
16075;SDS011;8142;48.242;11.644;2023-06-26T07:19:32;7.27;;;5.43;;
16075;SDS011;8142;48.242;11.644;2023-06-26T07:21:58;7.50;;;6.10;;
16075;SDS011;8142;48.242;11.644;2023-06-26T07:24:24;12.43;;;6.40;;
16075;SDS011;8142;48.242;11.644;2023-06-26T07:26:52;7.40;;;5.87;;
16075;SDS011;8142;48.242;11.644;2023-06-26T07:29:18;7.70;;;5.90;;
16075;SDS011;8142;48.242;11.644;2023-06-26T07:31:44;8.03;;;6.60;;
16075;SDS011;8142;48.242;11.644;2023-06-26T07:34:10;9.75;;;6.18;;
16075;SDS011;8142;48.242;11.644;2023-06-26T07:36:36;6.95;;;5.22;;
16075;SDS011;8142;48.242;11.644;2023-06-26T07:39:02;6.03;;;5.35;;
16075;SDS011;8142;48.242;11.644;2023-06-26T07:41:28;7.60;;;6.20;;
16075;SDS011;8142;48.242;11.644;2023-06-26T07:43:57;7.13;;;6.28;;
16075;SDS011;8142;48.242;11.644;2023-06-26T07:46:23;9.43;;;6.80;;
16075;SDS011;8142;48.242;11.644;2023-06-26T07:48:49;8.50;;;6.30;;
16075;SDS011;8142;48.242;11.644;2023-06-26T07:51:15;7.72;;;6.07;;
16075;SDS011;8142;48.242;11.644;2023-06-26T07:53:41;7.80;;;6.25;;
16075;SDS011;8142;48.242;11.644;2023-06-26T07:56:07;6.80;;;6.10;;
16075;SDS011;8142;48.242;11.644;2023-06-26T07:58:33;7.32;;;6.57;;
16075;SDS011;8142;48.242;11.644;2023-06-26T08:00:59;9.10;;;6.25;;
16075;SDS011;8142;48.242;11.644;2023-06-26T08:03:25;8.13;;;6.55;;
16075;SDS011;8142;48.242;11.644;2023-06-26T08:05:51;8.38;;;6.20;;
16075;SDS011;8142;48.242;11.644;2023-06-26T08:08:16;8.23;;;6.40;;
16075;SDS011;8142;48.242;11.644;2023-06-26T08:10:42;7.40;;;6.10;;
16075;SDS011;8142;48.242;11.644;2023-06-26T08:13:08;8.38;;;6.35;;
16075;SDS011;8142;48.242;11.644;2023-06-26T08:15:35;7.20;;;6.18;;
16075;SDS011;8142;48.242;11.644;2023-06-26T08:18:00;6.63;;;5.97;;
16075;SDS011;8142;48.242;11.644;2023-06-26T08:20:27;6.93;;;6.05;;
16075;SDS011;8142;48.242;11.644;2023-06-26T08:22:53;6.28;;;5.50;;
16075;SDS011;8142;48.242;11.644;2023-06-26T08:25:20;7.72;;;5.47;;
16075;SDS011;8142;48.242;11.644;2023-06-26T08:27:46;8.48;;;5.80;;
16075;SDS011;8142;48.242;11.644;2023-06-26T08:30:12;6.82;;;5.57;;
16075;SDS011;8142;48.242;11.644;2023-06-26T08:32:38;8.68;;;5.43;;
16075;SDS011;8142;48.242;11.644;2023-06-26T08:35:05;10.45;;;6.20;;
16075;SDS011;8142;48.242;11.644;2023-06-26T08:37:32;8.07;;;5.93;;
16075;SDS011;8142;48.242;11.644;2023-06-26T08:39:59;6.65;;;5.50;;
16075;SDS011;8142;48.242;11.644;2023-06-26T08:42:25;8.77;;;6.07;;
16075;SDS011;8142;48.242;11.644;2023-06-26T08:44:51;6.28;;;5.68;;
16075;SDS011;8142;48.242;11.644;2023-06-26T08:47:17;7.93;;;5.65;;
16075;SDS011;8142;48.242;11.644;2023-06-26T08:55:24;5.88;;;5.28;;
16075;SDS011;8142;48.242;11.644;2023-06-26T08:57:53;5.93;;;5.32;;
16075;SDS011;8142;48.242;11.644;2023-06-26T09:00:19;7.80;;;5.80;;
16075;SDS011;8142;48.242;11.644;2023-06-26T09:02:45;8.13;;;5.57;;
16075;SDS011;8142;48.242;11.644;2023-06-26T09:05:11;6.13;;;5.50;;
16075;SDS011;8142;48.242;11.644;2023-06-26T09:07:37;7.18;;;5.82;;
16075;SDS011;8142;48.242;11.644;2023-06-26T09:10:03;6.65;;;5.95;;
16075;SDS011;8142;48.242;11.644;2023-06-26T09:12:29;9.80;;;5.90;;
16075;SDS011;8142;48.242;11.644;2023-06-26T09:14:56;8.48;;;5.45;;
16075;SDS011;8142;48.242;11.644;2023-06-26T09:17:29;7.30;;;6.10;;
16075;SDS011;8142;48.242;11.644;2023-06-26T09:19:56;6.75;;;5.47;;
16075;SDS011;8142;48.242;11.644;2023-06-26T09:22:22;6.88;;;5.50;;
16075;SDS011;8142;48.242;11.644;2023-06-26T09:24:48;7.63;;;5.35;;
16075;SDS011;8142;48.242;11.644;2023-06-26T09:27:15;5.88;;;5.30;;
16075;SDS011;8142;48.242;11.644;2023-06-26T09:29:44;5.50;;;4.70;;
16075;SDS011;8142;48.242;11.644;2023-06-26T09:32:12;5.55;;;4.97;;
16075;SDS011;8142;48.242;11.644;2023-06-26T09:34:40;5.90;;;5.30;;
16075;SDS011;8142;48.242;11.644;2023-06-26T09:37:08;7.13;;;5.07;;
16075;SDS011;8142;48.242;11.644;2023-06-26T09:39:33;6.07;;;5.32;;
16075;SDS011;8142;48.242;11.644;2023-06-26T09:41:59;5.68;;;5.07;;
16075;SDS011;8142;48.242;11.644;2023-06-26T09:44:27;5.65;;;5.07;;
16075;SDS011;8142;48.242;11.644;2023-06-26T09:46:55;6.65;;;5.90;;
16075;SDS011;8142;48.242;11.644;2023-06-26T09:49:23;8.02;;;5.43;;
16075;SDS011;8142;48.242;11.644;2023-06-26T09:51:49;6.20;;;4.97;;
16075;SDS011;8142;48.242;11.644;2023-06-26T09:54:16;6.05;;;5.13;;
16075;SDS011;8142;48.242;11.644;2023-06-26T09:56:45;6.28;;;4.88;;
16075;SDS011;8142;48.242;11.644;2023-06-26T09:59:11;6.32;;;5.07;;
16075;SDS011;8142;48.242;11.644;2023-06-26T10:01:40;5.70;;;4.80;;
16075;SDS011;8142;48.242;11.644;2023-06-26T10:04:10;7.28;;;4.93;;
16075;SDS011;8142;48.242;11.644;2023-06-26T10:06:37;5.30;;;4.80;;
16075;SDS011;8142;48.242;11.644;2023-06-26T10:09:07;7.72;;;5.20;;
16075;SDS011;8142;48.242;11.644;2023-06-26T10:11:39;6.72;;;5.43;;
16075;SDS011;8142;48.242;11.644;2023-06-26T10:14:14;5.82;;;5.03;;
16075;SDS011;8142;48.242;11.644;2023-06-26T10:16:41;5.45;;;4.82;;
16075;SDS011;8142;48.242;11.644;2023-06-26T10:19:09;5.13;;;4.63;;
16075;SDS011;8142;48.242;11.644;2023-06-26T10:21:37;5.78;;;5.00;;
16075;SDS011;8142;48.242;11.644;2023-06-26T10:24:05;5.95;;;5.20;;
16075;SDS011;8142;48.242;11.644;2023-06-26T10:26:32;6.77;;;5.23;;
16075;SDS011;8142;48.242;11.644;2023-06-26T10:29:02;5.65;;;5.05;;
16075;SDS011;8142;48.242;11.644;2023-06-26T10:31:29;6.40;;;4.80;;
16075;SDS011;8142;48.242;11.644;2023-06-26T10:33:56;5.30;;;4.60;;
16075;SDS011;8142;48.242;11.644;2023-06-26T10:36:29;5.40;;;4.90;;
16075;SDS011;8142;48.242;11.644;2023-06-26T10:39:03;6.05;;;5.13;;
16075;SDS011;8142;48.242;11.644;2023-06-26T10:41:36;7.50;;;4.50;;
16075;SDS011;8142;48.242;11.644;2023-06-26T10:44:08;6.18;;;4.78;;
16075;SDS011;8142;48.242;11.644;2023-06-26T10:46:55;5.30;;;4.80;;
16075;SDS011;8142;48.242;11.644;2023-06-26T10:49:25;6.07;;;5.47;;
16075;SDS011;8142;48.242;11.644;2023-06-26T10:52:00;5.18;;;4.68;;
16075;SDS011;8142;48.242;11.644;2023-06-26T10:54:30;5.20;;;4.70;;
16075;SDS011;8142;48.242;11.644;2023-06-26T10:56:57;5.13;;;4.47;;
16075;SDS011;8142;48.242;11.644;2023-06-26T10:59:24;5.10;;;4.60;;
16075;SDS011;8142;48.242;11.644;2023-06-26T11:01:56;5.07;;;4.63;;
16075;SDS011;8142;48.242;11.644;2023-06-26T11:04:42;5.70;;;5.00;;
16075;SDS011;8142;48.242;11.644;2023-06-26T11:07:28;5.55;;;5.03;;
16075;SDS011;8142;48.242;11.644;2023-06-26T11:12:40;5.90;;;4.77;;
16075;SDS011;8142;48.242;11.644;2023-06-26T11:15:16;7.63;;;4.75;;
16075;SDS011;8142;48.242;11.644;2023-06-26T11:17:44;6.30;;;4.93;;
16075;SDS011;8142;48.242;11.644;2023-06-26T11:20:11;5.40;;;4.90;;
16075;SDS011;8142;48.242;11.644;2023-06-26T11:22:39;5.67;;;5.07;;
16075;SDS011;8142;48.242;11.644;2023-06-26T11:25:07;6.53;;;5.00;;
16075;SDS011;8142;48.242;11.644;2023-06-26T11:30:07;5.95;;;4.95;;
16075;SDS011;8142;48.242;11.644;2023-06-26T11:32:47;6.43;;;4.87;;
16075;SDS011;8142;48.242;11.644;2023-06-26T11:35:13;7.63;;;5.50;;
16075;SDS011;8142;48.242;11.644;2023-06-26T11:38:01;7.28;;;5.10;;
16075;SDS011;8142;48.242;11.644;2023-06-26T11:40:35;7.68;;;5.50;;
16075;SDS011;8142;48.242;11.644;2023-06-26T11:43:02;7.07;;;5.47;;
16075;SDS011;8142;48.242;11.644;2023-06-26T11:45:31;6.30;;;5.40;;
16075;SDS011;8142;48.242;11.644;2023-06-26T11:47:57;6.83;;;5.43;;
16075;SDS011;8142;48.242;11.644;2023-06-26T11:50:24;6.77;;;5.60;;
16075;SDS011;8142;48.242;11.644;2023-06-26T11:52:54;8.30;;;5.57;;
16075;SDS011;8142;48.242;11.644;2023-06-26T11:55:25;7.63;;;5.40;;
16075;SDS011;8142;48.242;11.644;2023-06-26T11:57:54;6.50;;;5.20;;
16075;SDS011;8142;48.242;11.644;2023-06-26T12:00:22;8.03;;;5.50;;
16075;SDS011;8142;48.242;11.644;2023-06-26T12:02:49;7.90;;;5.90;;
16075;SDS011;8142;48.242;11.644;2023-06-26T12:05:16;6.45;;;5.50;;
16075;SDS011;8142;48.242;11.644;2023-06-26T12:07:43;7.85;;;5.78;;
16075;SDS011;8142;48.242;11.644;2023-06-26T12:10:10;6.28;;;5.35;;
16075;SDS011;8142;48.242;11.644;2023-06-26T12:12:37;7.53;;;6.00;;
16075;SDS011;8142;48.242;11.644;2023-06-26T12:15:04;7.70;;;5.80;;
16075;SDS011;8142;48.242;11.644;2023-06-26T12:17:32;8.15;;;5.88;;
16075;SDS011;8142;48.242;11.644;2023-06-26T12:19:57;8.38;;;6.00;;
16075;SDS011;8142;48.242;11.644;2023-06-26T12:22:23;8.80;;;6.20;;
16075;SDS011;8142;48.242;11.644;2023-06-26T12:24:50;7.45;;;5.72;;
16075;SDS011;8142;48.242;11.644;2023-06-26T12:27:17;7.65;;;5.80;;
16075;SDS011;8142;48.242;11.644;2023-06-26T12:29:53;6.55;;;5.43;;
16075;SDS011;8142;48.242;11.644;2023-06-26T12:32:20;8.60;;;5.43;;
16075;SDS011;8142;48.242;11.644;2023-06-26T12:34:53;7.43;;;5.38;;
16075;SDS011;8142;48.242;11.644;2023-06-26T12:37:22;8.80;;;6.22;;
16075;SDS011;8142;48.242;11.644;2023-06-26T12:39:49;8.02;;;5.82;;
16075;SDS011;8142;48.242;11.644;2023-06-26T12:42:18;6.93;;;6.10;;
16075;SDS011;8142;48.242;11.644;2023-06-26T12:44:45;6.50;;;5.70;;
16075;SDS011;8142;48.242;11.644;2023-06-26T12:47:12;9.70;;;5.07;;
16075;SDS011;8142;48.242;11.644;2023-06-26T12:49:40;8.98;;;5.90;;
16075;SDS011;8142;48.242;11.644;2023-06-26T12:52:09;7.80;;;5.65;;
16075;SDS011;8142;48.242;11.644;2023-06-26T12:54:39;6.03;;;5.18;;
16075;SDS011;8142;48.242;11.644;2023-06-26T12:57:07;7.70;;;5.93;;
16075;SDS011;8142;48.242;11.644;2023-06-26T12:59:34;9.27;;;6.18;;
16075;SDS011;8142;48.242;11.644;2023-06-26T13:02:03;11.35;;;6.75;;
16075;SDS011;8142;48.242;11.644;2023-06-26T13:04:29;7.63;;;5.80;;
16075;SDS011;8142;48.242;11.644;2023-06-26T13:06:55;5.93;;;5.33;;
16075;SDS011;8142;48.242;11.644;2023-06-26T13:09:22;7.40;;;6.13;;
16075;SDS011;8142;48.242;11.644;2023-06-26T13:11:50;9.67;;;6.63;;
16075;SDS011;8142;48.242;11.644;2023-06-26T13:14:17;8.32;;;5.85;;
16075;SDS011;8142;48.242;11.644;2023-06-26T13:16:43;7.50;;;5.82;;
16075;SDS011;8142;48.242;11.644;2023-06-26T13:19:09;11.40;;;6.03;;
16075;SDS011;8142;48.242;11.644;2023-06-26T13:21:35;8.48;;;5.85;;
16075;SDS011;8142;48.242;11.644;2023-06-26T13:24:01;10.00;;;5.85;;
16075;SDS011;8142;48.242;11.644;2023-06-26T13:26:29;7.68;;;5.90;;
16075;SDS011;8142;48.242;11.644;2023-06-26T13:28:55;10.77;;;6.18;;
16075;SDS011;8142;48.242;11.644;2023-06-26T13:31:21;10.55;;;6.85;;
16075;SDS011;8142;48.242;11.644;2023-06-26T13:33:47;13.65;;;6.50;;
16075;SDS011;8142;48.242;11.644;2023-06-26T13:36:19;12.50;;;5.88;;
16075;SDS011;8142;48.242;11.644;2023-06-26T13:38:46;7.25;;;6.10;;
16075;SDS011;8142;48.242;11.644;2023-06-26T13:41:15;7.97;;;6.05;;
16075;SDS011;8142;48.242;11.644;2023-06-26T13:43:41;8.25;;;5.85;;
16075;SDS011;8142;48.242;11.644;2023-06-26T13:46:06;8.85;;;6.13;;
16075;SDS011;8142;48.242;11.644;2023-06-26T13:48:32;7.25;;;5.57;;
16075;SDS011;8142;48.242;11.644;2023-06-26T13:50:58;11.90;;;6.07;;
16075;SDS011;8142;48.242;11.644;2023-06-26T13:53:25;7.22;;;6.35;;
16075;SDS011;8142;48.242;11.644;2023-06-26T13:55:51;7.10;;;5.63;;
16075;SDS011;8142;48.242;11.644;2023-06-26T13:58:17;6.82;;;5.57;;
16075;SDS011;8142;48.242;11.644;2023-06-26T14:00:44;8.85;;;6.15;;
16075;SDS011;8142;48.242;11.644;2023-06-26T14:03:10;6.75;;;5.57;;
16075;SDS011;8142;48.242;11.644;2023-06-26T14:05:36;9.43;;;6.00;;
16075;SDS011;8142;48.242;11.644;2023-06-26T14:08:03;8.68;;;5.60;;
16075;SDS011;8142;48.242;11.644;2023-06-26T14:10:30;6.60;;;5.32;;
16075;SDS011;8142;48.242;11.644;2023-06-26T14:12:56;5.93;;;5.32;;
16075;SDS011;8142;48.242;11.644;2023-06-26T14:15:22;6.60;;;5.53;;
16075;SDS011;8142;48.242;11.644;2023-06-26T14:17:48;6.75;;;5.68;;
16075;SDS011;8142;48.242;11.644;2023-06-26T14:20:15;8.10;;;5.70;;
16075;SDS011;8142;48.242;11.644;2023-06-26T14:22:42;8.90;;;5.97;;
16075;SDS011;8142;48.242;11.644;2023-06-26T14:25:11;6.97;;;5.63;;
16075;SDS011;8142;48.242;11.644;2023-06-26T14:27:39;6.15;;;5.40;;
16075;SDS011;8142;48.242;11.644;2023-06-26T14:30:05;7.18;;;5.30;;
16075;SDS011;8142;48.242;11.644;2023-06-26T14:32:33;9.45;;;6.43;;
16075;SDS011;8142;48.242;11.644;2023-06-26T14:35:00;8.70;;;5.75;;
16075;SDS011;8142;48.242;11.644;2023-06-26T14:37:26;6.43;;;5.35;;
16075;SDS011;8142;48.242;11.644;2023-06-26T14:39:54;7.78;;;5.20;;
16075;SDS011;8142;48.242;11.644;2023-06-26T14:42:19;7.32;;;5.60;;
16075;SDS011;8142;48.242;11.644;2023-06-26T14:44:45;6.85;;;5.70;;
16075;SDS011;8142;48.242;11.644;2023-06-26T14:47:18;6.00;;;5.20;;
16075;SDS011;8142;48.242;11.644;2023-06-26T14:49:44;6.40;;;5.15;;
16075;SDS011;8142;48.242;11.644;2023-06-26T14:52:10;8.55;;;5.45;;
16075;SDS011;8142;48.242;11.644;2023-06-26T14:54:36;6.88;;;5.80;;
16075;SDS011;8142;48.242;11.644;2023-06-26T14:57:03;6.53;;;5.80;;
16075;SDS011;8142;48.242;11.644;2023-06-26T14:59:29;7.15;;;5.47;;
16075;SDS011;8142;48.242;11.644;2023-06-26T15:01:55;7.35;;;5.72;;
16075;SDS011;8142;48.242;11.644;2023-06-26T15:04:21;6.25;;;5.50;;
16075;SDS011;8142;48.242;11.644;2023-06-26T15:06:47;6.57;;;5.38;;
16075;SDS011;8142;48.242;11.644;2023-06-26T15:09:13;7.22;;;5.45;;
16075;SDS011;8142;48.242;11.644;2023-06-26T15:11:38;7.27;;;5.90;;